Time;durP1;ratioP1;P1;durP2;ratioP2;P2;SDS_P1;SDS_P2;PMS_P1;PMS_P2;Temp;Humidity;BMP_temperature;BMP_pressure;BME280_temperature;BME280_humidity;BME280_pressure;Samples;Min_cycle;Max_cycle;Signal;HPM_P1;HPM_P2
2023/11/28 00:02:29;;;;;;;40.83;14.63;;;-1.20;99.90;;;;;;4439182;28;658877;-71
2023/11/28 00:05:16;;;;;;;47.03;16.33;;;-1.30;99.90;;;;;;4454841;28;660628;-72
2023/11/28 00:08:04;;;;;;;43.00;17.10;;;-1.30;99.90;;;;;;4428790;27;658837;-71
2023/11/28 00:10:51;;;;;;;38.97;14.50;;;-1.30;99.90;;;;;;4462677;27;659413;-72
2023/11/28 00:13:38;;;;;;;33.40;13.87;;;-1.30;99.90;;;;;;4430091;27;658720;-71
2023/11/28 00:16:25;;;;;;;32.97;13.35;;;-1.30;99.90;;;;;;4447506;27;659228;-73
2023/11/28 00:19:14;;;;;;;32.93;13.43;;;-1.40;99.90;;;;;;4425702;28;658593;-71
2023/11/28 00:22:01;;;;;;;37.50;14.23;;;-1.40;99.90;;;;;;4457714;27;658890;-72
2023/11/28 00:24:48;;;;;;;37.07;13.83;;;-1.30;99.90;;;;;;4432527;28;658534;-71
2023/11/28 00:27:35;;;;;;;33.88;13.20;;;-1.40;99.90;;;;;;4455093;27;659497;-71
2023/11/28 00:30:23;;;;;;;30.30;12.77;;;-1.40;99.90;;;;;;4432583;28;658910;-71
2023/11/28 00:33:10;;;;;;;25.73;11.47;;;-1.40;99.90;;;;;;4453568;27;659681;-71
2023/11/28 00:35:59;;;;;;;35.33;13.53;;;-1.50;99.90;;;;;;4449172;28;659049;-72
2023/11/28 00:38:46;;;;;;;30.63;11.53;;;-1.40;99.90;;;;;;4446797;28;658629;-71
2023/11/28 00:41:34;;;;;;;30.90;12.90;;;-1.40;99.90;;;;;;4438797;28;658739;-71
2023/11/28 00:44:21;;;;;;;26.37;11.17;;;-1.40;99.90;;;;;;4451165;28;658539;-71
2023/11/28 00:47:09;;;;;;;28.10;13.03;;;-1.30;99.90;;;;;;4439640;27;659166;-71
2023/11/28 00:49:57;;;;;;;29.03;12.30;;;-1.40;99.90;;;;;;4456903;28;658055;-72
2023/11/28 00:52:45;;;;;;;31.23;12.57;;;-1.30;99.90;;;;;;4439233;28;658377;-72
2023/11/28 00:55:32;;;;;;;28.40;12.80;;;-1.30;99.90;;;;;;4434905;27;659039;-71
2023/11/28 00:58:20;;;;;;;31.77;12.67;;;-1.30;99.90;;;;;;4457234;28;659825;-71
2023/11/28 01:01:07;;;;;;;27.93;12.37;;;-1.30;99.90;;;;;;4441951;28;658959;-71
2023/11/28 01:03:54;;;;;;;32.17;13.23;;;-1.30;99.90;;;;;;4429203;28;658569;-72
2023/11/28 01:06:41;;;;;;;30.57;12.03;;;-1.30;99.90;;;;;;4451652;28;658788;-72
2023/11/28 01:09:30;;;;;;;26.23;11.77;;;-1.30;99.90;;;;;;4430775;28;659119;-71
2023/11/28 01:12:18;;;;;;;27.08;11.68;;;-1.30;99.90;;;;;;4435404;28;658722;-71
2023/11/28 01:15:07;;;;;;;32.90;12.87;;;-1.40;99.90;;;;;;4446376;28;659929;-72
2023/11/28 01:17:54;;;;;;;23.03;10.80;;;-1.30;99.90;;;;;;4439679;28;659179;-72
2023/11/28 01:20:43;;;;;;;23.70;10.93;;;-1.30;99.90;;;;;;4452518;28;658925;-72
2023/11/28 01:23:30;;;;;;;26.67;10.90;;;-1.20;99.90;;;;;;4424198;28;659233;-71
2023/11/28 01:26:19;;;;;;;28.03;11.87;;;-1.30;99.90;;;;;;4452199;28;659052;-71
2023/11/28 01:29:06;;;;;;;20.87;8.83;;;-1.30;99.90;;;;;;4450081;28;658854;-71
2023/11/28 01:31:53;;;;;;;28.27;11.70;;;-1.30;99.90;;;;;;4435274;28;658245;-71
2023/11/28 01:34:40;;;;;;;25.03;10.97;;;-1.30;99.90;;;;;;4450305;28;659062;-72
2023/11/28 01:37:27;;;;;;;27.33;11.05;;;-1.30;99.90;;;;;;4436382;28;658774;-71
2023/11/28 01:40:15;;;;;;;26.50;11.17;;;-1.30;99.90;;;;;;4458592;28;659462;-71
2023/11/28 01:43:04;;;;;;;27.47;10.77;;;-1.30;99.90;;;;;;4449145;28;658567;-71
2023/11/28 01:45:51;;;;;;;23.40;10.73;;;-1.30;99.90;;;;;;4452197;28;659120;-72
2023/11/28 01:48:39;;;;;;;24.13;11.20;;;-1.30;99.90;;;;;;4438169;28;658911;-72
2023/11/28 01:51:26;;;;;;;21.37;9.80;;;-1.30;99.90;;;;;;4448662;28;659716;-71
2023/11/28 01:54:13;;;;;;;24.63;10.27;;;-1.30;99.90;;;;;;4440491;28;657516;-71
2023/11/28 01:57:00;;;;;;;24.33;9.80;;;-1.30;99.90;;;;;;4461530;28;659718;-71
2023/11/28 01:59:49;;;;;;;25.38;10.63;;;-1.30;99.90;;;;;;4448442;28;657852;-71
2023/11/28 02:02:36;;;;;;;25.20;10.20;;;-1.30;99.90;;;;;;4441505;28;659075;-71
2023/11/28 02:05:23;;;;;;;22.33;10.67;;;-1.30;99.90;;;;;;4426017;28;658496;-71
2023/11/28 02:08:11;;;;;;;22.87;10.50;;;-1.30;99.90;;;;;;4460589;27;659077;-72
2023/11/28 02:10:59;;;;;;;23.73;11.40;;;-1.30;99.90;;;;;;4442623;27;658851;-71
2023/11/28 02:13:46;;;;;;;29.47;12.47;;;-1.20;99.90;;;;;;4468292;27;658145;-72
2023/11/28 02:16:35;;;;;;;24.60;10.93;;;-1.30;99.90;;;;;;4443263;27;658872;-72
2023/11/28 02:19:22;;;;;;;26.77;11.20;;;-1.30;99.90;;;;;;4436797;27;658927;-72
2023/11/28 02:22:10;;;;;;;25.67;11.17;;;-1.30;99.90;;;;;;4449303;27;658899;-72
2023/11/28 02:24:58;;;;;;;31.60;12.50;;;-1.30;99.90;;;;;;4459710;27;659030;-72
2023/11/28 02:27:47;;;;;;;34.10;15.17;;;-1.30;99.90;;;;;;4427329;27;659166;-72
2023/11/28 02:30:34;;;;;;;37.17;15.60;;;-1.30;99.90;;;;;;4441125;28;659446;-71
2023/11/28 02:33:21;;;;;;;33.47;14.60;;;-1.30;99.90;;;;;;4450761;27;659315;-71
2023/11/28 02:36:09;;;;;;;33.20;14.83;;;-1.30;99.90;;;;;;4436424;27;659524;-71
2023/11/28 02:38:56;;;;;;;34.63;15.40;;;-1.30;99.90;;;;;;4463309;27;659384;-72
2023/11/28 02:41:44;;;;;;;35.10;14.20;;;-1.40;99.90;;;;;;4435192;27;659271;-71
2023/11/28 02:44:32;;;;;;;37.60;15.73;;;-1.30;99.90;;;;;;4458629;27;659797;-72
2023/11/28 02:47:19;;;;;;;31.37;13.57;;;-1.30;99.90;;;;;;4430503;28;659513;-72
2023/11/28 02:50:07;;;;;;;33.73;13.67;;;-1.30;99.90;;;;;;4464035;27;658395;-72
2023/11/28 02:52:54;;;;;;;36.88;14.40;;;-1.40;99.90;;;;;;4438079;27;659533;-71
2023/11/28 02:55:42;;;;;;;32.17;14.93;;;-1.30;99.90;;;;;;4439296;27;659158;-71
2023/11/28 02:58:29;;;;;;;38.17;15.77;;;-1.40;99.90;;;;;;4441435;27;659643;-72
2023/11/28 03:01:17;;;;;;;34.13;15.37;;;-1.40;99.90;;;;;;4457390;28;659916;-72
2023/11/28 03:04:05;;;;;;;31.13;15.23;;;-1.40;99.90;;;;;;4430445;27;659081;-72
2023/11/28 03:06:52;;;;;;;39.37;16.37;;;-1.40;99.90;;;;;;4459908;27;658456;-71
2023/11/28 03:09:40;;;;;;;37.63;15.30;;;-1.40;99.90;;;;;;4468601;27;658681;-71
2023/11/28 03:12:27;;;;;;;35.95;15.23;;;-1.40;99.90;;;;;;4443290;27;658871;-71
2023/11/28 03:15:15;;;;;;;37.57;16.10;;;-1.40;99.90;;;;;;4458782;27;659661;-72
2023/11/28 03:18:08;;;;;;;36.63;15.17;;;-1.30;99.90;;;;;;4451719;27;658729;-71
2023/11/28 03:20:55;;;;;;;37.17;16.57;;;-1.40;99.90;;;;;;4430226;28;659453;-71
2023/11/28 03:23:42;;;;;;;32.75;15.18;;;-1.30;99.90;;;;;;4439883;27;659729;-71
2023/11/28 03:26:30;;;;;;;35.30;14.30;;;-1.40;99.90;;;;;;4452915;27;659879;-72
2023/11/28 03:29:17;;;;;;;38.70;16.43;;;-1.40;99.90;;;;;;4448141;28;658449;-72
2023/11/28 03:32:05;;;;;;;34.63;15.30;;;-1.40;99.90;;;;;;4451467;27;659214;-72
2023/11/28 03:34:54;;;;;;;44.40;16.57;;;-1.40;99.90;;;;;;4313658;28;659182;-71
2023/11/28 03:37:41;;;;;;;36.07;16.07;;;-1.40;99.90;;;;;;4271058;27;658580;-71
2023/11/28 03:40:28;;;;;;;39.13;16.13;;;-1.30;99.90;;;;;;4298057;27;658345;-72
2023/11/28 03:43:15;;;;;;;38.42;17.45;;;-1.30;99.90;;;;;;4449260;28;659567;-72
2023/11/28 03:46:03;;;;;;;34.70;15.27;;;-1.30;99.90;;;;;;4428502;28;659019;-71
2023/11/28 03:48:50;;;;;;;36.00;16.83;;;-1.30;99.90;;;;;;4447794;27;659728;-72
2023/11/28 03:51:39;;;;;;;37.60;16.17;;;-1.30;99.90;;;;;;4430939;28;658780;-71
2023/11/28 03:54:27;;;;;;;36.10;16.13;;;-1.30;99.90;;;;;;4445351;28;658609;-72
2023/11/28 03:57:14;;;;;;;49.03;18.93;;;-1.30;99.90;;;;;;4443775;27;660060;-72
2023/11/28 04:00:01;;;;;;;45.70;18.63;;;-1.30;99.90;;;;;;4448254;27;659354;-72
2023/11/28 04:02:49;;;;;;;43.50;17.43;;;-1.30;99.90;;;;;;4425852;28;658992;-72
2023/11/28 04:05:36;;;;;;;49.27;19.23;;;-1.30;99.90;;;;;;4448241;27;659609;-72
2023/11/28 04:08:24;;;;;;;52.73;19.57;;;-1.30;99.90;;;;;;4428657;27;659210;-71
2023/11/28 04:11:11;;;;;;;62.20;21.40;;;-1.30;99.90;;;;;;4451342;27;658815;-71
2023/11/28 04:13:59;;;;;;;45.57;18.10;;;-1.30;99.90;;;;;;4424830;27;659475;-72
2023/11/28 04:16:46;;;;;;;51.10;17.80;;;-1.30;99.90;;;;;;4456748;28;658232;-72
2023/11/28 04:19:33;;;;;;;46.00;18.20;;;-1.30;99.90;;;;;;4442128;27;659270;-71
2023/11/28 04:22:21;;;;;;;45.50;17.37;;;-1.30;99.90;;;;;;4451040;27;659919;-71
2023/11/28 04:25:09;;;;;;;42.60;16.87;;;-1.30;99.90;;;;;;4446769;27;658853;-71
2023/11/28 04:27:57;;;;;;;36.03;14.93;;;-1.30;99.90;;;;;;4453321;27;659136;-72
2023/11/28 04:30:44;;;;;;;34.27;15.47;;;-1.30;99.90;;;;;;4440094;27;659561;-72
2023/11/28 04:33:31;;;;;;;35.90;14.87;;;-1.20;99.90;;;;;;4450832;28;658620;-72
2023/11/28 04:36:18;;;;;;;28.10;12.43;;;-1.20;99.90;;;;;;4421419;27;659060;-71
2023/11/28 04:39:06;;;;;;;33.10;13.57;;;-1.20;99.90;;;;;;4455467;28;660173;-72
2023/11/28 04:41:55;;;;;;;29.65;13.38;;;-1.30;99.90;;;;;;4428966;27;658718;-72
2023/11/28 04:44:42;;;;;;;25.63;11.33;;;-1.30;99.90;;;;;;4461376;27;659704;-72
2023/11/28 04:47:30;;;;;;;34.30;14.03;;;-1.30;99.90;;;;;;4454803;27;659329;-72
2023/11/28 04:50:17;;;;;;;34.97;13.90;;;-1.30;99.90;;;;;;4459964;27;658458;-71
2023/11/28 04:53:04;;;;;;;27.13;12.47;;;-1.30;99.90;;;;;;4430748;27;659359;-72
2023/11/28 04:55:51;;;;;;;27.87;14.30;;;-1.30;99.90;;;;;;4449855;28;658145;-72
2023/11/28 04:58:42;;;;;;;42.43;13.97;;;-1.30;99.90;;;;;;4438407;28;658586;-71
2023/11/28 05:01:29;;;;;;;32.80;14.37;;;-1.30;99.90;;;;;;4437624;28;659846;-72
2023/11/28 05:04:16;;;;;;;38.17;15.23;;;-1.30;99.90;;;;;;4452997;28;658871;-72
2023/11/28 05:07:04;;;;;;;34.75;14.13;;;-1.30;99.90;;;;;;4432402;28;660190;-72
2023/11/28 05:09:51;;;;;;;29.27;13.30;;;-1.30;99.90;;;;;;4454708;28;658761;-72
2023/11/28 05:12:38;;;;;;;30.90;12.90;;;-1.40;99.90;;;;;;4436995;28;658965;-72
2023/11/28 05:15:27;;;;;;;31.53;14.20;;;-1.40;99.90;;;;;;4458236;28;659571;-72
2023/11/28 05:18:14;;;;;;;27.27;12.27;;;-1.40;99.90;;;;;;4437287;28;658852;-72
2023/11/28 05:21:01;;;;;;;31.63;14.60;;;-1.40;99.90;;;;;;4444908;28;659368;-72
2023/11/28 05:23:48;;;;;;;30.50;13.20;;;-1.50;99.90;;;;;;4429606;28;658984;-72
2023/11/28 05:26:35;;;;;;;29.40;13.27;;;-1.50;99.90;;;;;;4454126;28;659447;-72
2023/11/28 05:29:23;;;;;;;35.20;15.03;;;-1.50;99.90;;;;;;4435079;28;658862;-71
2023/11/28 05:32:11;;;;;;;31.57;14.20;;;-1.50;99.90;;;;;;4460924;28;659598;-72
2023/11/28 05:34:58;;;;;;;35.13;15.20;;;-1.50;99.90;;;;;;4426350;28;659854;-72
2023/11/28 05:37:45;;;;;;;26.20;12.67;;;-1.50;99.90;;;;;;4446153;28;659883;-72
2023/11/28 05:40:32;;;;;;;32.67;14.33;;;-1.60;99.90;;;;;;4439501;28;658953;-72
2023/11/28 05:43:20;;;;;;;31.87;14.13;;;-1.60;99.90;;;;;;4455655;28;659367;-72
2023/11/28 05:46:08;;;;;;;29.70;13.53;;;-1.60;99.90;;;;;;4444407;28;658437;-72
2023/11/28 05:48:57;;;;;;;28.80;13.47;;;-1.60;99.90;;;;;;4464217;27;659131;-71
2023/11/28 05:51:44;;;;;;;33.67;14.67;;;-1.60;99.90;;;;;;4443132;27;658936;-72
2023/11/28 05:54:31;;;;;;;30.70;13.13;;;-1.50;99.90;;;;;;4456746;27;658436;-72
2023/11/28 05:57:19;;;;;;;33.70;14.17;;;-1.50;99.90;;;;;;4436044;27;658797;-72
2023/11/28 06:00:08;;;;;;;22.47;10.07;;;-1.60;99.90;;;;;;4460400;28;660007;-72
2023/11/28 06:02:55;;;;;;;29.03;12.83;;;-1.50;99.90;;;;;;4441488;27;659178;-72
2023/11/28 06:05:44;;;;;;;29.13;13.20;;;-1.60;99.90;;;;;;4447989;28;659140;-72
2023/11/28 06:08:32;;;;;;;27.90;12.30;;;-1.60;99.90;;;;;;4464177;27;658710;-72
2023/11/28 06:11:19;;;;;;;30.37;13.67;;;-1.60;99.90;;;;;;4441552;27;659971;-72
2023/11/28 06:14:06;;;;;;;30.37;12.80;;;-1.70;99.90;;;;;;4448657;28;658400;-72
2023/11/28 06:16:54;;;;;;;26.67;12.47;;;-1.60;99.90;;;;;;4437166;27;658850;-72
2023/11/28 06:19:41;;;;;;;32.80;13.23;;;-1.60;99.90;;;;;;4455581;27;658269;-72
2023/11/28 06:22:29;;;;;;;25.10;9.80;;;-1.70;99.90;;;;;;4436421;28;658900;-72
2023/11/28 06:25:17;;;;;;;32.23;13.63;;;-1.60;99.90;;;;;;4452777;28;657609;-73
2023/11/28 06:28:04;;;;;;;35.67;15.40;;;-1.60;99.90;;;;;;4440156;27;658821;-72
2023/11/28 06:30:51;;;;;;;33.53;15.13;;;-1.60;99.90;;;;;;4456573;28;658276;-72
2023/11/28 06:33:38;;;;;;;29.47;13.53;;;-1.70;99.90;;;;;;4423706;28;659021;-72
2023/11/28 06:36:25;;;;;;;32.53;15.13;;;-1.70;99.90;;;;;;4463951;28;659351;-72
2023/11/28 06:39:14;;;;;;;29.83;14.57;;;-1.70;99.90;;;;;;4428691;27;658621;-72
2023/11/28 06:42:02;;;;;;;33.80;14.00;;;-1.70;99.90;;;;;;4455299;27;658627;-72
2023/11/28 06:44:50;;;;;;;30.73;14.40;;;-1.70;99.90;;;;;;4431744;28;658538;-72
2023/11/28 06:47:38;;;;;;;36.37;14.83;;;-1.60;99.90;;;;;;4435906;27;658721;-72
2023/11/28 06:50:26;;;;;;;35.03;16.03;;;-1.50;99.90;;;;;;4462892;28;658808;-72
2023/11/28 06:53:13;;;;;;;33.77;16.10;;;-1.50;99.90;;;;;;4430880;27;659089;-72
2023/11/28 06:56:04;;;;;;;28.70;13.97;;;-1.60;99.90;;;;;;4456953;27;659630;-73
2023/11/28 06:58:52;;;;;;;34.03;14.60;;;-1.60;99.90;;;;;;4433246;27;658808;-73
2023/11/28 07:01:40;;;;;;;31.13;13.53;;;-1.50;99.90;;;;;;4443686;27;660197;-72
2023/11/28 07:04:27;;;;;;;39.77;17.10;;;-1.60;99.90;;;;;;4460198;27;658570;-71
2023/11/28 07:07:15;;;;;;;34.20;14.80;;;-1.50;99.90;;;;;;4464180;27;658421;-73
2023/11/28 07:10:02;;;;;;;35.43;15.73;;;-1.50;99.90;;;;;;4449437;28;658629;-73
2023/11/28 07:12:51;;;;;;;37.83;16.47;;;-1.50;99.90;;;;;;4432050;27;658902;-72
2023/11/28 07:15:38;;;;;;;38.97;15.83;;;-1.40;99.90;;;;;;4440490;27;658484;-72
2023/11/28 07:18:25;;;;;;;41.13;17.43;;;-1.40;99.90;;;;;;4448960;28;659669;-72
2023/11/28 07:21:13;;;;;;;37.23;15.23;;;-1.30;99.90;;;;;;4448146;27;659369;-71
2023/11/28 07:24:00;;;;;;;39.63;16.33;;;-1.30;99.90;;;;;;4463858;27;660002;-72
2023/11/28 07:26:48;;;;;;;35.63;14.83;;;-1.20;99.90;;;;;;4460010;27;658763;-72
2023/11/28 07:29:36;;;;;;;29.43;14.30;;;-1.30;99.90;;;;;;4460346;27;659728;-72
2023/11/28 07:32:24;;;;;;;34.93;16.53;;;-1.20;99.90;;;;;;4440258;27;659662;-73
2023/11/28 07:35:11;;;;;;;38.27;16.57;;;-1.20;99.90;;;;;;4463716;27;658971;-72
2023/11/28 07:37:58;;;;;;;38.10;16.57;;;-1.10;99.90;;;;;;4441395;27;663395;-72
2023/11/28 07:40:45;;;;;;;34.13;15.40;;;-1.00;99.90;;;;;;4459042;27;659317;-72
2023/11/28 07:43:33;;;;;;;35.05;14.93;;;-1.00;99.90;;;;;;4428841;28;658759;-72
2023/11/28 07:46:23;;;;;;;34.37;15.07;;;-0.90;99.90;;;;;;4450971;28;659081;-72
2023/11/28 07:49:10;;;;;;;31.67;14.57;;;-0.80;99.90;;;;;;4418918;28;659488;-72
2023/11/28 07:51:57;;;;;;;35.17;16.03;;;-0.80;99.90;;;;;;4436555;27;659207;-71
2023/11/28 07:54:45;;;;;;;34.13;13.70;;;-0.80;99.90;;;;;;4456736;28;659613;-72
2023/11/28 07:57:32;;;;;;;32.60;14.27;;;-0.80;99.90;;;;;;4460097;27;657953;-72
2023/11/28 08:00:21;;;;;;;35.27;15.10;;;-0.90;99.90;;;;;;4428098;28;658384;-72
2023/11/28 08:03:10;;;;;;;34.83;14.90;;;-0.90;99.90;;;;;;4431589;27;658577;-72
2023/11/28 08:05:57;;;;;;;32.67;15.50;;;-0.90;99.90;;;;;;4431443;28;659656;-71
2023/11/28 08:08:45;;;;;;;36.07;15.70;;;-0.90;99.90;;;;;;4455820;27;659007;-72
2023/11/28 08:11:32;;;;;;;33.83;13.87;;;-0.90;99.90;;;;;;4461129;27;658399;-72
2023/11/28 08:14:20;;;;;;;33.00;15.50;;;-0.80;99.90;;;;;;4435386;28;659187;-72
2023/11/28 08:17:07;;;;;;;38.50;16.53;;;-0.70;99.90;;;;;;4426831;28;658324;-72
2023/11/28 08:19:57;;;;;;;35.13;15.70;;;-0.80;99.90;;;;;;4457245;27;657675;-72
2023/11/28 08:22:45;;;;;;;33.23;15.03;;;-0.70;99.90;;;;;;4420068;28;659220;-72
2023/11/28 08:25:32;;;;;;;36.30;16.73;;;-0.70;99.90;;;;;;4454101;28;658633;-72
2023/11/28 08:28:19;;;;;;;32.93;15.10;;;-0.60;99.90;;;;;;4435935;27;659325;-72
2023/11/28 08:31:08;;;;;;;33.57;15.23;;;-0.60;99.90;;;;;;4461135;27;657973;-72
2023/11/28 08:33:55;;;;;;;37.30;15.00;;;-0.60;99.90;;;;;;4432401;27;659408;-72
2023/11/28 08:36:45;;;;;;;35.03;14.90;;;-0.60;99.90;;;;;;4450102;28;658547;-71
2023/11/28 08:39:32;;;;;;;40.17;15.93;;;-0.60;99.90;;;;;;4423959;28;659198;-72
2023/11/28 08:42:20;;;;;;;36.50;16.10;;;-0.50;99.90;;;;;;4458095;28;658931;-73
2023/11/28 08:45:08;;;;;;;34.17;16.73;;;-0.40;99.90;;;;;;4459824;27;659165;-72
2023/11/28 08:47:55;;;;;;;36.50;16.50;;;-0.30;99.90;;;;;;4434454;28;659580;-72
2023/11/28 08:50:43;;;;;;;24.50;11.90;;;-0.30;99.90;;;;;;4421099;28;658460;-71
2023/11/28 08:53:31;;;;;;;33.40;14.97;;;-0.20;99.90;;;;;;4453165;28;659343;-71
2023/11/28 08:56:19;;;;;;;33.37;14.00;;;-0.30;99.90;;;;;;4429312;28;659039;-72
2023/11/28 08:59:06;;;;;;;30.63;14.17;;;-0.30;99.90;;;;;;4446711;28;659673;-72
2023/11/28 09:01:53;;;;;;;30.73;14.10;;;-0.30;99.90;;;;;;4429655;28;660275;-72
2023/11/28 09:04:40;;;;;;;33.73;14.40;;;-0.20;99.90;;;;;;4445452;28;659883;-72
2023/11/28 09:07:27;;;;;;;26.70;12.73;;;-0.10;99.90;;;;;;4432890;28;660189;-72
2023/11/28 09:10:16;;;;;;;27.90;13.83;;;-0.10;99.90;;;;;;4462540;28;659202;-72
2023/11/28 09:13:03;;;;;;;28.07;12.23;;;-0.10;99.90;;;;;;4431236;28;658946;-72
2023/11/28 09:15:50;;;;;;;28.57;14.17;;;-0.10;99.90;;;;;;4461181;28;659099;-73
2023/11/28 09:18:37;;;;;;;30.33;13.50;;;-0.10;99.90;;;;;;4439541;27;658828;-72
2023/11/28 09:21:24;;;;;;;29.77;14.67;;;0.00;99.90;;;;;;4459306;27;658714;-72
2023/11/28 09:24:12;;;;;;;31.97;15.40;;;-0.10;99.90;;;;;;4465243;27;657986;-72
2023/11/28 09:27:01;;;;;;;33.63;15.53;;;-0.10;99.90;;;;;;4439085;27;660544;-71
2023/11/28 09:29:48;;;;;;;36.37;16.10;;;-0.10;99.90;;;;;;4431975;27;658812;-72
2023/11/28 09:32:35;;;;;;;33.10;15.57;;;-0.20;99.90;;;;;;4460317;27;659228;-72
2023/11/28 09:35:23;;;;;;;36.93;16.40;;;0.00;99.90;;;;;;4273781;27;658532;-71
2023/11/28 09:38:11;;;;;;;32.40;14.90;;;0.10;99.90;;;;;;4285453;27;657254;-71
2023/11/28 09:40:58;;;;;;;36.60;15.50;;;0.10;99.90;;;;;;4360487;27;657697;-71
2023/11/28 09:43:49;;;;;;;41.13;16.03;;;0.10;99.90;;;;;;4461256;27;657756;-71
2023/11/28 09:46:37;;;;;;;36.13;16.57;;;0.10;99.90;;;;;;4436511;27;658151;-72
2023/11/28 09:49:24;;;;;;;35.63;15.20;;;0.10;99.90;;;;;;4440337;27;657800;-71
2023/11/28 09:52:13;;;;;;;34.37;15.87;;;0.20;99.90;;;;;;4454657;27;657942;-71
2023/11/28 09:55:00;;;;;;;35.00;16.40;;;0.20;99.90;;;;;;4434862;28;658368;-72
2023/11/28 09:57:49;;;;;;;32.23;15.33;;;0.20;99.90;;;;;;4436112;27;657788;-71
2023/11/28 10:00:37;;;;;;;33.93;15.77;;;0.30;99.90;;;;;;4452822;27;658190;-71
2023/11/28 10:03:24;;;;;;;28.93;14.33;;;0.20;99.90;;;;;;4437999;27;658305;-71
2023/11/28 10:06:14;;;;;;;33.50;15.47;;;0.30;99.90;;;;;;4448441;27;657969;-71
2023/11/28 10:09:02;;;;;;;33.97;15.13;;;0.40;99.90;;;;;;4444846;27;658944;-72
2023/11/28 10:11:49;;;;;;;28.33;13.33;;;0.30;99.90;;;;;;4436047;27;658656;-72
2023/11/28 10:14:39;;;;;;;28.63;14.43;;;0.50;99.90;;;;;;4456896;28;657612;-72
2023/11/28 10:17:27;;;;;;;31.47;14.33;;;0.50;99.90;;;;;;4428187;28;658360;-72
2023/11/28 10:20:15;;;;;;;30.50;13.63;;;0.60;99.90;;;;;;4433164;28;657799;-72
2023/11/28 10:23:02;;;;;;;34.23;14.13;;;0.60;99.90;;;;;;4458871;28;657317;-72
2023/11/28 10:25:49;;;;;;;20.43;8.90;;;0.50;99.90;;;;;;4427458;28;658040;-72
2023/11/28 10:28:37;;;;;;;24.47;13.03;;;0.60;99.90;;;;;;4453240;28;656959;-72
2023/11/28 10:31:24;;;;;;;32.67;13.70;;;0.40;99.90;;;;;;4433303;28;658039;-72
2023/11/28 10:34:12;;;;;;;27.30;12.87;;;0.60;99.90;;;;;;4449503;28;658372;-72
2023/11/28 10:36:59;;;;;;;23.17;12.57;;;0.60;99.90;;;;;;4441245;28;658313;-72
2023/11/28 10:39:47;;;;;;;24.73;11.33;;;0.70;99.90;;;;;;4459008;28;657814;-72
2023/11/28 10:42:34;;;;;;;23.10;10.80;;;0.70;99.90;;;;;;4435422;28;657827;-71
2023/11/28 10:45:21;;;;;;;23.87;11.37;;;0.70;99.90;;;;;;4451730;28;658028;-70
2023/11/28 10:48:08;;;;;;;25.03;10.43;;;0.60;99.90;;;;;;4434181;28;658347;-71
2023/11/28 10:50:57;;;;;;;22.93;11.00;;;0.50;99.90;;;;;;4455411;28;657311;-72
2023/11/28 10:53:44;;;;;;;20.33;10.53;;;0.40;99.90;;;;;;4428557;28;658555;-72
2023/11/28 10:56:46;;;;;;;23.47;11.43;;;0.40;99.90;;;;;;4451119;28;657808;-72
2023/11/28 10:59:35;;;;;;;21.40;10.67;;;0.50;99.90;;;;;;4410263;28;657788;-71
2023/11/28 11:02:23;;;;;;;25.10;11.73;;;0.50;99.90;;;;;;4436113;28;658264;-71
2023/11/28 11:05:10;;;;;;;23.10;10.97;;;0.60;99.90;;;;;;4454588;28;658895;-72
2023/11/28 11:07:59;;;;;;;26.00;12.03;;;0.90;99.90;;;;;;4446007;28;657503;-71
2023/11/28 11:10:46;;;;;;;21.33;10.77;;;0.80;99.90;;;;;;4401625;28;1146882;-72
2023/11/28 11:13:36;;;;;;;21.97;9.83;;;0.80;99.90;;;;;;4423123;28;659000;-71
2023/11/28 11:16:26;;;;;;;26.13;12.33;;;0.70;99.90;;;;;;4423531;28;656849;-72
2023/11/28 11:19:13;;;;;;;25.00;12.63;;;0.70;99.90;;;;;;4434091;28;657145;-71
2023/11/28 11:22:01;;;;;;;25.33;12.43;;;0.80;99.90;;;;;;4451152;28;657495;-72
2023/11/28 11:24:50;;;;;;;31.88;13.68;;;0.90;99.90;;;;;;4432735;27;658493;-71
2023/11/28 11:27:37;;;;;;;22.83;11.20;;;0.80;99.90;;;;;;4445854;27;658066;-71
2023/11/28 11:30:34;;;;;;;31.13;13.88;;;0.70;99.90;;;;;;4457542;28;657931;-72
2023/11/28 11:33:24;;;;;;;28.02;12.88;;;0.80;99.90;;;;;;4434020;28;658219;-72
2023/11/28 11:36:13;;;;;;;25.67;13.33;;;0.60;99.90;;;;;;4427044;28;657948;-72
2023/11/28 11:39:00;;;;;;;27.73;12.90;;;0.60;99.90;;;;;;4446883;27;658428;-72
2023/11/28 11:41:49;;;;;;;26.83;13.30;;;0.70;99.90;;;;;;4429375;28;657435;-72
2023/11/28 11:44:40;;;;;;;22.03;11.57;;;0.70;99.90;;;;;;4454602;27;657615;-72
2023/11/28 11:47:28;;;;;;;27.67;12.23;;;0.80;99.90;;;;;;4422038;28;657706;-71
2023/11/28 11:50:19;;;;;;;24.17;11.23;;;0.70;99.90;;;;;;4447981;28;658820;-71
2023/11/28 11:53:09;;;;;;;25.15;11.27;;;0.60;99.90;;;;;;4436761;27;657918;-73
2023/11/28 11:55:59;;;;;;;22.73;12.47;;;0.50;99.90;;;;;;4424235;27;658643;-73
2023/11/28 11:58:47;;;;;;;25.77;11.30;;;0.50;99.90;;;;;;4426964;27;657962;-72
2023/11/28 12:01:34;;;;;;;26.27;12.13;;;0.60;99.90;;;;;;4431026;27;658281;-72
2023/11/28 12:04:22;;;;;;;26.83;11.80;;;0.60;99.90;;;;;;4441878;27;657371;-73
2023/11/28 12:07:11;;;;;;;27.77;12.50;;;0.60;99.90;;;;;;4432469;27;657847;-72
2023/11/28 12:09:58;;;;;;;27.63;11.93;;;0.60;99.90;;;;;;4439185;27;658630;-71
2023/11/28 12:12:45;;;;;;;23.63;11.43;;;0.60;99.90;;;;;;4455987;27;657137;-72
2023/11/28 12:15:34;;;;;;;23.30;11.27;;;0.40;99.90;;;;;;4425213;27;658393;-71
2023/11/28 12:18:22;;;;;;;22.83;11.60;;;0.10;99.90;;;;;;4458652;27;657279;-72
2023/11/28 12:21:09;;;;;;;19.43;10.80;;;0.20;99.90;;;;;;4429728;27;658462;-72
2023/11/28 12:23:57;;;;;;;23.52;10.98;;;0.30;99.90;;;;;;4457963;27;658524;-72
2023/11/28 12:26:44;;;;;;;21.87;11.20;;;0.30;99.90;;;;;;4434539;28;658845;-72
2023/11/28 12:29:31;;;;;;;23.58;11.25;;;0.30;99.90;;;;;;4451156;27;658429;-72
2023/11/28 12:32:20;;;;;;;23.43;11.33;;;0.30;99.90;;;;;;4432462;28;658220;-72
2023/11/28 12:35:09;;;;;;;21.13;9.93;;;0.20;99.90;;;;;;4438077;28;658132;-72
2023/11/28 12:37:57;;;;;;;23.40;11.60;;;0.10;99.90;;;;;;4462256;28;657388;-71
2023/11/28 12:40:45;;;;;;;23.60;11.33;;;0.10;99.90;;;;;;4437262;27;658624;-72
2023/11/28 12:43:35;;;;;;;23.57;11.40;;;0.10;99.90;;;;;;4446671;28;657783;-72
2023/11/28 12:46:22;;;;;;;26.37;12.67;;;0.20;99.90;;;;;;4451168;27;658903;-71
2023/11/28 12:49:11;;;;;;;27.30;11.93;;;0.30;99.90;;;;;;4457350;28;658031;-72
2023/11/28 12:51:58;;;;;;;27.37;12.30;;;0.30;99.90;;;;;;4425673;28;657779;-72
2023/11/28 12:54:45;;;;;;;22.25;11.55;;;0.30;99.90;;;;;;4447494;28;658659;-72
2023/11/28 12:57:33;;;;;;;19.93;10.67;;;0.30;99.90;;;;;;4437232;28;657324;-72
2023/11/28 13:00:22;;;;;;;19.17;8.93;;;0.20;99.90;;;;;;4452455;28;658623;-72
2023/11/28 13:03:09;;;;;;;21.77;10.73;;;0.10;99.90;;;;;;4427952;28;657011;-72
2023/11/28 13:05:57;;;;;;;22.67;9.83;;;0.00;99.90;;;;;;4448065;28;657914;-72
2023/11/28 13:08:45;;;;;;;23.17;11.50;;;0.00;99.90;;;;;;4433333;28;657996;-73
2023/11/28 13:11:32;;;;;;;21.27;10.93;;;0.00;99.90;;;;;;4451670;28;657624;-71
2023/11/28 13:14:20;;;;;;;17.47;7.40;;;0.10;99.90;;;;;;4461902;28;658384;-72
2023/11/28 13:17:07;;;;;;;20.90;9.60;;;0.20;99.90;;;;;;4448792;28;656278;-73
2023/11/28 13:19:54;;;;;;;23.30;10.67;;;-0.10;99.90;;;;;;4434728;28;656867;-72
2023/11/28 13:22:43;;;;;;;20.87;10.90;;;-0.20;99.90;;;;;;4454450;28;659261;-72
2023/11/28 13:25:30;;;;;;;22.50;11.67;;;-0.20;99.90;;;;;;4419637;28;659725;-72
2023/11/28 13:28:18;;;;;;;21.13;9.10;;;-0.30;99.90;;;;;;4439395;28;658699;-72
2023/11/28 13:31:07;;;;;;;24.73;12.03;;;-0.30;99.90;;;;;;4457168;28;658337;-72
2023/11/28 13:33:56;;;;;;;24.83;12.13;;;-0.30;99.90;;;;;;4433611;28;660106;-72
2023/11/28 13:36:43;;;;;;;23.87;10.87;;;-0.30;99.90;;;;;;4437077;28;659072;-71
2023/11/28 13:39:32;;;;;;;22.37;10.33;;;-0.40;99.90;;;;;;4445738;28;658729;-72
2023/11/28 13:42:19;;;;;;;24.23;12.20;;;-0.50;99.90;;;;;;4432598;28;658566;-71
2023/11/28 13:45:08;;;;;;;35.60;16.00;;;-0.60;99.90;;;;;;4454108;28;658020;-72
2023/11/28 13:47:55;;;;;;;21.23;10.37;;;-0.50;99.90;;;;;;4430688;28;659849;-71
2023/11/28 13:50:43;;;;;;;25.17;11.53;;;-0.60;99.90;;;;;;4424993;28;658569;-71
2023/11/28 13:53:30;;;;;;;23.20;10.67;;;-0.70;99.90;;;;;;4447961;28;658953;-71
2023/11/28 13:56:19;;;;;;;22.30;10.80;;;-0.70;99.90;;;;;;4439329;28;658899;-71
2023/11/28 13:59:06;;;;;;;22.43;10.53;;;-0.70;99.90;;;;;;4458367;28;658510;-72
2023/11/28 14:01:53;;;;;;;25.33;10.47;;;-0.70;99.90;;;;;;4434593;28;659148;-72
2023/11/28 14:04:40;;;;;;;24.00;11.67;;;-0.70;99.90;;;;;;4448542;27;658956;-72